Time;durP1;ratioP1;P1;durP2;ratioP2;P2;SDS_P1;SDS_P2;PMS_P1;PMS_P2;Temp;Humidity;BMP_temperature;BMP_pressure;BME280_temperature;BME280_humidity;BME280_pressure;Samples;Min_cycle;Max_cycle;Signal;HPM_P1;HPM_P2
2022/01/08 00:00:56;;;;;;;0.30;0.20;;;-2.70;99.90;;;;;;2224793;64;20181;-36
2022/01/08 00:03:22;;;;;;;1.37;0.10;;;-2.70;99.90;;;;;;2225016;64;20174;-37
2022/01/08 00:05:48;;;;;;;0.40;0.20;;;-2.70;99.90;;;;;;2224764;64;20160;-37
2022/01/08 00:08:15;;;;;;;0.20;0.20;;;-2.70;99.90;;;;;;2224669;64;20528;-36
2022/01/08 00:10:42;;;;;;;0.47;0.20;;;-2.70;99.90;;;;;;2224729;64;20100;-37
2022/01/08 00:13:08;;;;;;;0.40;0.20;;;-2.70;99.90;;;;;;2224965;64;20155;-38
2022/01/08 00:15:36;;;;;;;0.10;0.10;;;-2.70;99.90;;;;;;2224857;64;20551;-38
2022/01/08 00:18:08;;;;;;;1.50;0.20;;;-2.80;99.90;;;;;;2217722;64;20459;-38
2022/01/08 00:20:35;;;;;;;0.20;0.10;;;-2.80;99.90;;;;;;2224900;64;20096;-36
2022/01/08 00:23:02;;;;;;;1.70;0.20;;;-2.80;99.90;;;;;;2211299;64;20110;-37
2022/01/08 00:25:29;;;;;;;0.97;0.10;;;-2.80;99.60;;;;;;2206955;64;20585;-37
2022/01/08 00:27:55;;;;;;;0.20;0.10;;;-2.80;99.40;;;;;;2207551;64;20557;-38
2022/01/08 00:30:22;;;;;;;0.67;0.30;;;-2.90;98.90;;;;;;2207569;64;20145;-37
2022/01/08 00:32:48;;;;;;;0.60;0.17;;;-2.90;98.90;;;;;;2207614;64;20187;-38
2022/01/08 00:35:16;;;;;;;0.40;0.30;;;-2.90;98.90;;;;;;2207683;64;20097;-37
2022/01/08 00:37:43;;;;;;;0.30;0.20;;;-3.00;98.90;;;;;;2207505;64;20267;-38
2022/01/08 00:40:10;;;;;;;0.40;0.20;;;-3.00;98.80;;;;;;2207616;64;20098;-37
2022/01/08 00:42:38;;;;;;;0.20;0.10;;;-3.10;99.20;;;;;;2207511;64;20706;-38
2022/01/08 00:45:05;;;;;;;0.40;0.30;;;-3.10;99.10;;;;;;2207795;64;20086;-38
2022/01/08 00:47:32;;;;;;;0.40;0.30;;;-3.30;99.60;;;;;;2207361;64;20098;-38
2022/01/08 00:49:59;;;;;;;0.63;0.37;;;-3.30;99.60;;;;;;2207596;64;20106;-39
2022/01/08 00:52:26;;;;;;;0.93;0.30;;;-3.30;99.50;;;;;;2207528;64;20086;-38
2022/01/08 00:54:52;;;;;;;0.80;0.37;;;-3.40;99.70;;;;;;2218306;64;20111;-37
2022/01/08 00:57:18;;;;;;;0.70;0.70;;;-3.50;99.90;;;;;;2220852;64;20190;-37
2022/01/08 00:59:45;;;;;;;0.20;0.20;;;-3.60;99.90;;;;;;2220836;64;20587;-38
2022/01/08 01:02:11;;;;;;;0.60;0.20;;;-3.60;99.90;;;;;;2220773;64;20095;-39
2022/01/08 01:04:38;;;;;;;1.07;0.27;;;-3.70;99.90;;;;;;2220896;64;20650;-38
2022/01/08 01:07:04;;;;;;;1.43;0.20;;;-3.70;99.90;;;;;;2220649;64;20131;-38
2022/01/08 01:09:31;;;;;;;1.07;0.20;;;-3.80;99.90;;;;;;2216983;64;20120;-39
2022/01/08 01:11:58;;;;;;;0.10;0.10;;;-3.90;99.90;;;;;;2220806;64;20103;-38
2022/01/08 01:14:24;;;;;;;1.07;0.20;;;-4.00;99.90;;;;;;2220810;64;20111;-38
2022/01/08 01:16:51;;;;;;;0.30;0.20;;;-4.00;99.90;;;;;;2220683;64;20185;-39
2022/01/08 01:19:17;;;;;;;0.50;0.20;;;-4.10;99.90;;;;;;2216871;64;20092;-38
2022/01/08 01:21:44;;;;;;;0.90;0.20;;;-4.20;99.90;;;;;;2220707;64;20104;-39
2022/01/08 01:24:16;;;;;;;0.60;0.30;;;-4.20;99.90;;;;;;2220894;64;20089;-39
2022/01/08 01:27:02;;;;;;;0.20;0.20;;;-4.30;99.90;;;;;;2224142;64;20104;-39
2022/01/08 01:48:22;;;;;;;0.60;0.47;;;-4.60;99.50;;;;;;2224440;64;20593;-39
2022/01/08 01:50:48;;;;;;;0.30;0.20;;;-4.70;99.50;;;;;;2211121;64;20152;-48
2022/01/08 01:53:15;;;;;;;0.57;0.20;;;-4.80;99.40;;;;;;2211089;64;20105;-39
2022/01/08 01:55:44;;;;;;;0.60;0.30;;;-4.90;99.50;;;;;;2208091;64;20092;-38
2022/01/08 01:58:10;;;;;;;3.27;0.40;;;-5.00;99.50;;;;;;2211371;64;20108;-39
2022/01/08 02:00:36;;;;;;;0.37;0.20;;;-5.10;99.60;;;;;;2211249;64;20542;-39
2022/01/08 02:03:03;;;;;;;0.97;0.20;;;-5.20;99.60;;;;;;2211327;64;20085;-38
2022/01/08 02:05:29;;;;;;;1.00;0.40;;;-5.40;99.70;;;;;;2211190;64;20101;-38
2022/01/08 02:07:56;;;;;;;1.40;0.30;;;-5.50;99.90;;;;;;2211475;64;20623;-37
2022/01/08 02:10:22;;;;;;;1.33;0.50;;;-5.50;99.90;;;;;;2211113;64;20101;-37
2022/01/08 02:12:49;;;;;;;3.30;0.60;;;-5.60;99.90;;;;;;2211195;64;20089;-36
2022/01/08 02:15:16;;;;;;;0.50;0.30;;;-5.70;99.90;;;;;;2211245;64;20086;-37
2022/01/08 02:17:42;;;;;;;4.20;0.40;;;-5.80;99.90;;;;;;2211236;64;20096;-38
2022/01/08 02:20:09;;;;;;;0.43;0.30;;;-5.80;99.90;;;;;;2208046;64;20675;-38
2022/01/08 02:22:36;;;;;;;0.50;0.20;;;-5.90;99.90;;;;;;2217918;64;20180;-37
2022/01/08 02:25:03;;;;;;;1.17;0.40;;;-5.90;99.90;;;;;;2223605;64;20076;-38
2022/01/08 02:27:29;;;;;;;2.27;0.60;;;-6.00;99.90;;;;;;2220662;64;20127;-38
2022/01/08 02:29:56;;;;;;;3.17;0.50;;;-6.10;99.90;;;;;;2220557;64;20116;-37
2022/01/08 02:32:29;;;;;;;2.77;0.53;;;-6.10;99.90;;;;;;2220742;64;20085;-38
2022/01/08 02:34:56;;;;;;;3.63;0.50;;;-6.30;99.90;;;;;;2220482;64;20096;-39
2022/01/08 02:37:25;;;;;;;0.77;0.40;;;-6.20;99.90;;;;;;2220659;64;20084;-38
2022/01/08 02:39:52;;;;;;;0.90;0.40;;;-6.20;99.90;;;;;;2220467;64;20437;-37
2022/01/08 02:42:19;;;;;;;1.00;0.30;;;-6.00;99.90;;;;;;2220623;64;20118;-38
2022/01/08 02:44:46;;;;;;;0.90;0.40;;;-5.90;99.90;;;;;;2220400;64;20084;-37
2022/01/08 02:47:16;;;;;;;0.23;0.20;;;-5.90;99.90;;;;;;2220406;64;20176;-38
2022/01/08 02:49:43;;;;;;;0.70;0.40;;;-5.80;99.90;;;;;;2220434;64;20556;-38
2022/01/08 02:52:10;;;;;;;0.10;0.10;;;-5.70;99.90;;;;;;2214847;64;20723;-38
2022/01/08 02:54:36;;;;;;;0.47;0.40;;;-5.60;99.90;;;;;;2211660;64;20108;-39
2022/01/08 02:57:03;;;;;;;1.53;0.27;;;-5.50;99.70;;;;;;2211744;64;20097;-39
2022/01/08 02:59:30;;;;;;;1.33;0.20;;;-5.60;99.90;;;;;;2215117;64;20111;-38
2022/01/08 03:01:56;;;;;;;0.80;0.60;;;-5.40;99.40;;;;;;2211845;64;20093;-39
2022/01/08 03:04:22;;;;;;;0.20;0.10;;;-5.40;99.60;;;;;;2215070;64;20104;-38
2022/01/08 03:06:49;;;;;;;0.17;0.10;;;-5.40;99.20;;;;;;2214977;64;20100;-39
2022/01/08 03:09:15;;;;;;;1.10;0.20;;;-5.30;99.10;;;;;;2214974;64;20520;-38
2022/01/08 03:11:43;;;;;;;0.80;0.33;;;-5.30;99.30;;;;;;2214786;64;20140;-39
2022/01/08 03:14:12;;;;;;;1.17;0.20;;;-5.40;99.20;;;;;;2215081;64;20104;-44
2022/01/08 03:16:39;;;;;;;0.20;0.20;;;-5.40;99.60;;;;;;2211790;64;20078;-39
2022/01/08 03:19:13;;;;;;;2.30;0.50;;;-5.50;99.30;;;;;;2215043;64;20097;-38
2022/01/08 03:21:42;;;;;;;1.07;0.30;;;-5.60;99.40;;;;;;2214844;64;20232;-41
2022/01/08 03:24:10;;;;;;;0.87;0.20;;;-5.60;99.30;;;;;;2219651;64;20485;-38
2022/01/08 03:26:37;;;;;;;0.50;0.40;;;-5.70;99.70;;;;;;2224322;64;20484;-38
2022/01/08 03:29:03;;;;;;;1.67;0.20;;;-5.90;99.90;;;;;;2224937;64;20102;-38
2022/01/08 03:31:30;;;;;;;0.80;0.30;;;-5.90;99.90;;;;;;2224869;64;20080;-38
2022/01/08 03:33:56;;;;;;;0.50;0.20;;;-5.90;99.70;;;;;;2224966;64;20177;-39
2022/01/08 03:36:23;;;;;;;0.60;0.30;;;-6.00;99.90;;;;;;2224725;64;20096;-38
2022/01/08 03:38:51;;;;;;;0.63;0.20;;;-6.10;99.90;;;;;;2221181;64;20080;-38
2022/01/08 03:41:17;;;;;;;2.77;0.50;;;-6.10;99.90;;;;;;2224798;64;20559;-39
2022/01/08 03:43:43;;;;;;;0.43;0.30;;;-6.20;99.90;;;;;;2224788;64;20088;-38
2022/01/08 03:46:11;;;;;;;1.30;0.30;;;-6.40;99.90;;;;;;2224832;64;20099;-38
2022/01/08 03:48:58;;;;;;;1.37;0.70;;;-6.40;99.90;;;;;;2224806;64;20554;-39
2022/01/08 03:51:25;;;;;;;1.77;0.50;;;-6.50;99.90;;;;;;2224742;64;20092;-38
2022/01/08 03:53:52;;;;;;;3.50;0.30;;;-6.70;99.90;;;;;;2224917;64;20548;-39
2022/01/08 03:56:18;;;;;;;0.30;0.20;;;-6.80;99.90;;;;;;2224887;64;20551;-38
2022/01/08 03:58:45;;;;;;;0.27;0.13;;;-6.90;99.90;;;;;;2224960;64;20081;-39
2022/01/08 04:01:11;;;;;;;1.00;0.50;;;-7.00;99.90;;;;;;2224836;64;20095;-38
2022/01/08 04:03:38;;;;;;;0.40;0.30;;;-7.10;99.90;;;;;;2224900;64;20068;-39
2022/01/08 04:06:05;;;;;;;0.40;0.30;;;-7.20;99.90;;;;;;2224884;64;20100;-38
2022/01/08 04:08:31;;;;;;;0.30;0.20;;;-7.40;99.90;;;;;;2224995;64;20094;-38
2022/01/08 04:10:58;;;;;;;2.67;0.20;;;-7.50;99.90;;;;;;2224595;64;20096;-38
2022/01/08 04:13:29;;;;;;;0.30;0.20;;;-7.50;99.90;;;;;;2224948;64;20556;-39
2022/01/08 04:16:08;;;;;;;2.87;0.27;;;-7.50;99.90;;;;;;2224807;64;20088;-40
2022/01/08 04:18:34;;;;;;;1.10;0.93;;;-7.60;99.90;;;;;;2225012;64;20096;-38
2022/01/08 04:23:36;;;;;;;0.67;0.20;;;-7.70;99.90;;;;;;2224880;64;20198;-38
2022/01/08 04:26:03;;;;;;;0.73;0.20;;;-7.70;99.90;;;;;;2222475;64;20092;-39
2022/01/08 04:28:29;;;;;;;0.20;0.10;;;-7.70;99.90;;;;;;2220978;64;20088;-38
2022/01/08 04:30:56;;;;;;;0.10;0.10;;;-7.70;99.90;;;;;;2220695;64;20548;-38
2022/01/08 04:33:22;;;;;;;0.73;0.40;;;-7.70;99.90;;;;;;2217022;64;20100;-38
2022/01/08 04:35:49;;;;;;;2.00;0.30;;;-7.70;99.90;;;;;;2220719;64;20089;-39
2022/01/08 04:38:15;;;;;;;0.73;0.50;;;-7.70;99.90;;;;;;2217073;64;20081;-39
2022/01/08 04:40:42;;;;;;;0.50;0.20;;;-7.70;99.90;;;;;;2220648;64;20114;-38
2022/01/08 04:43:08;;;;;;;4.47;0.27;;;-7.80;99.90;;;;;;2216823;64;20173;-38
2022/01/08 04:45:35;;;;;;;0.63;0.27;;;-7.80;99.90;;;;;;2220584;64;20107;-39
2022/01/08 04:48:02;;;;;;;0.30;0.20;;;-7.80;99.90;;;;;;2220801;64;20092;-39
2022/01/08 04:50:28;;;;;;;0.07;0.07;;;-7.80;99.90;;;;;;2220468;64;20192;-39
2022/01/08 04:52:56;;;;;;;0.20;0.10;;;-7.70;99.90;;;;;;2220848;64;20093;-38
2022/01/08 04:55:28;;;;;;;1.27;0.17;;;-7.90;99.90;;;;;;2220602;64;20103;-39
2022/01/08 04:57:55;;;;;;;0.10;0.10;;;-7.80;99.90;;;;;;2217045;64;20108;-39
2022/01/08 05:00:22;;;;;;;0.27;0.20;;;-7.90;99.90;;;;;;2220578;64;20085;-38
2022/01/08 05:02:53;;;;;;;1.50;0.20;;;-7.90;99.90;;;;;;2220713;64;20111;-39
2022/01/08 05:05:20;;;;;;;0.53;0.30;;;-8.10;99.90;;;;;;2220740;64;20604;-39
2022/01/08 05:07:46;;;;;;;0.60;0.20;;;-8.10;99.90;;;;;;2220803;64;20084;-39
2022/01/08 05:10:13;;;;;;;1.27;0.40;;;-8.20;99.90;;;;;;2220526;64;20084;-39
2022/01/08 05:12:39;;;;;;;1.57;0.40;;;-8.20;99.90;;;;;;2220744;64;20085;-40
2022/01/08 05:15:06;;;;;;;2.27;0.20;;;-8.30;99.90;;;;;;2220840;64;20103;-39
2022/01/08 05:17:35;;;;;;;0.30;0.23;;;-8.40;99.90;;;;;;2220914;64;20085;-39
2022/01/08 05:20:05;;;;;;;0.10;0.10;;;-8.40;99.90;;;;;;2220673;64;20096;-39
2022/01/08 05:22:49;;;;;;;0.50;0.40;;;-8.30;99.90;;;;;;2220579;64;20084;-39
2022/01/08 05:25:16;;;;;;;3.30;0.30;;;-8.30;99.90;;;;;;2221661;64;20494;-38
2022/01/08 05:27:43;;;;;;;1.53;0.30;;;-8.20;99.90;;;;;;2224633;64;20099;-40
2022/01/08 05:30:10;;;;;;;5.60;0.73;;;-8.20;99.90;;;;;;2224387;64;20108;-39
2022/01/08 05:32:37;;;;;;;0.90;0.40;;;-8.40;99.90;;;;;;2224589;64;20088;-40
2022/01/08 05:35:03;;;;;;;1.27;0.50;;;-8.40;99.90;;;;;;2224537;64;20092;-39
2022/01/08 05:37:30;;;;;;;0.60;0.40;;;-8.50;99.90;;;;;;2224489;64;20092;-38
2022/01/08 05:39:56;;;;;;;0.60;0.30;;;-8.50;99.90;;;;;;2220546;64;20248;-39
2022/01/08 05:42:23;;;;;;;1.70;0.30;;;-8.40;99.90;;;;;;2220796;64;20110;-38
2022/01/08 05:44:49;;;;;;;4.67;0.40;;;-8.30;99.90;;;;;;2220577;64;20098;-38
2022/01/08 05:47:16;;;;;;;0.70;0.30;;;-8.10;99.90;;;;;;2219553;64;20108;-39
2022/01/08 05:49:42;;;;;;;0.87;0.40;;;-8.00;99.90;;;;;;2220344;64;20080;-38
2022/01/08 05:52:12;;;;;;;4.50;0.93;;;-7.90;99.90;;;;;;2220758;64;20092;-39
2022/01/08 05:54:38;;;;;;;2.00;0.40;;;-7.70;99.90;;;;;;2220358;64;20253;-39
2022/01/08 05:57:06;;;;;;;1.83;0.50;;;-7.40;99.90;;;;;;2220757;64;20475;-39
2022/01/08 05:59:33;;;;;;;1.70;0.40;;;-7.10;99.90;;;;;;2220552;64;20167;-40
2022/01/08 06:01:59;;;;;;;0.93;0.40;;;-6.90;99.90;;;;;;2220665;64;20104;-41
2022/01/08 06:04:26;;;;;;;2.43;0.50;;;-6.50;99.60;;;;;;2220481;64;20108;-39
2022/01/08 06:06:53;;;;;;;0.47;0.30;;;-6.50;99.40;;;;;;2219706;64;20097;-39
2022/01/08 06:09:19;;;;;;;5.73;0.40;;;-6.50;99.50;;;;;;2220238;64;20111;-38
2022/01/08 06:11:46;;;;;;;0.90;0.50;;;-6.30;99.60;;;;;;2219905;64;20100;-39
2022/01/08 06:14:13;;;;;;;0.37;0.20;;;-6.40;99.50;;;;;;2220438;64;20096;-39
2022/01/08 06:16:39;;;;;;;0.30;0.30;;;-6.30;99.60;;;;;;2220461;64;20077;-39
2022/01/08 06:19:10;;;;;;;1.27;0.30;;;-6.30;99.80;;;;;;2220478;64;20181;-39
2022/01/08 06:21:38;;;;;;;0.37;0.30;;;-6.40;99.90;;;;;;2220514;64;20583;-40
2022/01/08 06:24:05;;;;;;;1.93;0.40;;;-6.40;99.90;;;;;;2220428;64;20093;-39
2022/01/08 06:26:32;;;;;;;0.70;0.40;;;-6.40;99.90;;;;;;2217235;64;20101;-39
2022/01/08 06:28:59;;;;;;;3.23;0.53;;;-6.40;99.90;;;;;;2216494;64;20553;-41
2022/01/08 06:31:25;;;;;;;1.60;0.53;;;-6.30;99.90;;;;;;2216708;64;20089;-42
2022/01/08 06:33:52;;;;;;;1.13;0.33;;;-6.20;99.90;;;;;;2216559;64;20202;-40
2022/01/08 06:36:19;;;;;;;0.77;0.30;;;-6.10;99.90;;;;;;2216651;64;20103;-41
2022/01/08 06:38:51;;;;;;;0.53;0.40;;;-5.90;99.80;;;;;;2216519;64;20097;-40
2022/01/08 06:41:18;;;;;;;6.43;0.57;;;-5.80;99.60;;;;;;2216673;64;20094;-40
2022/01/08 06:43:46;;;;;;;2.00;0.40;;;-5.90;99.20;;;;;;2215932;64;20574;-40
2022/01/08 06:46:13;;;;;;;0.30;0.20;;;-5.90;99.90;;;;;;2216495;64;20138;-40
2022/01/08 06:48:41;;;;;;;0.30;0.20;;;-6.00;99.70;;;;;;2219771;64;20104;-40
2022/01/08 06:51:08;;;;;;;2.23;0.50;;;-5.80;99.60;;;;;;2220409;64;20201;-40
2022/01/08 06:53:34;;;;;;;0.47;0.30;;;-5.80;99.60;;;;;;2220166;64;20554;-40
2022/01/08 06:56:01;;;;;;;1.10;0.60;;;-5.90;99.90;;;;;;2220488;64;20540;-41
2022/01/08 06:58:27;;;;;;;0.30;0.20;;;-5.80;99.90;;;;;;2220412;64;20233;-40
2022/01/08 07:00:54;;;;;;;0.70;0.33;;;-5.80;99.90;;;;;;2221022;64;20130;-39
2022/01/08 07:03:20;;;;;;;1.23;0.70;;;-5.80;99.90;;;;;;2221037;64;20085;-41
2022/01/08 07:05:46;;;;;;;1.60;0.40;;;-5.70;99.90;;;;;;2221176;64;20180;-40
2022/01/08 07:08:14;;;;;;;0.90;0.47;;;-5.70;99.90;;;;;;2221089;64;20104;-41
2022/01/08 07:10:41;;;;;;;0.70;0.30;;;-5.50;99.90;;;;;;2220933;64;20159;-41
2022/01/08 07:13:07;;;;;;;1.97;0.60;;;-5.10;99.80;;;;;;2220922;64;20476;-40
2022/01/08 07:15:34;;;;;;;2.63;0.50;;;-4.90;98.90;;;;;;2221085;64;20583;-41
2022/01/08 07:18:00;;;;;;;1.33;0.40;;;-5.00;99.50;;;;;;2220987;64;20107;-40
2022/01/08 07:20:27;;;;;;;1.07;0.47;;;-5.10;99.90;;;;;;2221085;64;20565;-42
2022/01/08 07:22:53;;;;;;;0.97;0.50;;;-5.20;99.90;;;;;;2221018;64;20107;-41
2022/01/08 07:25:20;;;;;;;1.60;0.30;;;-5.30;99.90;;;;;;2222296;64;20096;-40
2022/01/08 07:27:46;;;;;;;0.40;0.27;;;-5.30;99.90;;;;;;2224823;64;20583;-40
2022/01/08 07:30:13;;;;;;;1.00;0.63;;;-5.20;99.90;;;;;;2224913;64;20099;-40
2022/01/08 07:32:47;;;;;;;0.43;0.33;;;-5.10;97.90;;;;;;2217725;64;20080;-41
2022/01/08 07:35:16;;;;;;;0.60;0.37;;;-5.00;96.00;;;;;;2225067;64;20084;-42
2022/01/08 07:37:43;;;;;;;3.10;0.60;;;-4.70;95.70;;;;;;2224806;64;20095;-40
2022/01/08 07:40:10;;;;;;;1.80;0.40;;;-4.50;95.20;;;;;;2224879;64;20160;-40
2022/01/08 07:42:37;;;;;;;4.27;0.77;;;-4.30;94.70;;;;;;2224695;64;20146;-40
2022/01/08 07:45:05;;;;;;;3.23;0.60;;;-4.20;93.50;;;;;;2224810;64;20111;-40
2022/01/08 07:47:32;;;;;;;4.10;0.60;;;-4.00;93.10;;;;;;2224377;64;20496;-39
2022/01/08 07:49:58;;;;;;;20.13;8.50;;;-3.80;92.90;;;;;;2224768;64;20100;-39
2022/01/08 07:52:25;;;;;;;1.40;0.60;;;-3.50;92.90;;;;;;2224852;64;20098;-39
2022/01/08 07:54:51;;;;;;;1.43;0.30;;;-3.60;92.40;;;;;;2224908;64;20189;-39
2022/01/08 07:57:18;;;;;;;2.20;0.47;;;-3.60;91.80;;;;;;2224513;64;20100;-40
2022/01/08 07:59:44;;;;;;;0.73;0.27;;;-3.50;91.50;;;;;;2224817;64;20559;-41
2022/01/08 08:02:11;;;;;;;1.50;0.37;;;-3.90;92.10;;;;;;2224745;64;20169;-40
2022/01/08 08:04:38;;;;;;;0.23;0.20;;;-4.00;91.60;;;;;;2221019;64;20110;-40
2022/01/08 08:07:04;;;;;;;0.53;0.30;;;-4.20;92.90;;;;;;2224640;64;20084;-40
2022/01/08 08:09:31;;;;;;;1.63;0.83;;;-4.30;94.30;;;;;;2224566;64;20685;-39
2022/01/08 08:11:58;;;;;;;1.40;0.80;;;-4.30;95.30;;;;;;2224421;64;20096;-40
2022/01/08 08:14:27;;;;;;;3.63;0.60;;;-4.30;96.10;;;;;;2224735;64;20072;-40
2022/01/08 08:16:56;;;;;;;2.40;0.60;;;-4.30;94.60;;;;;;2224735;64;20084;-41
2022/01/08 08:19:26;;;;;;;2.23;0.50;;;-4.10;95.20;;;;;;2224817;64;20583;-40
2022/01/08 08:21:52;;;;;;;0.83;0.37;;;-3.90;94.30;;;;;;2224676;64;20163;-40
2022/01/08 08:24:20;;;;;;;1.20;0.40;;;-3.90;92.30;;;;;;2224668;64;20080;-40
2022/01/08 08:26:47;;;;;;;1.80;0.50;;;-4.10;91.60;;;;;;2217424;64;20096;-41
2022/01/08 08:29:14;;;;;;;1.07;0.40;;;-4.10;91.00;;;;;;2220926;64;20171;-42
2022/01/08 08:31:40;;;;;;;0.30;0.27;;;-4.10;89.00;;;;;;2220645;64;20096;-41
2022/01/08 08:34:07;;;;;;;1.47;0.63;;;-4.10;85.80;;;;;;2220920;64;20578;-40
2022/01/08 08:36:33;;;;;;;1.40;0.87;;;-3.90;86.90;;;;;;2220829;64;20104;-39
2022/01/08 08:39:00;;;;;;;1.27;0.30;;;-4.00;84.80;;;;;;2220851;64;20092;-43
2022/01/08 08:41:26;;;;;;;0.40;0.30;;;-3.80;83.10;;;;;;2211089;64;20116;-41
2022/01/08 08:43:53;;;;;;;0.20;0.20;;;-4.00;84.50;;;;;;2211358;64;20104;-41
2022/01/08 08:46:19;;;;;;;1.53;0.50;;;-4.00;82.00;;;;;;2211469;64;20097;-43
2022/01/08 08:48:46;;;;;;;0.37;0.27;;;-4.00;85.60;;;;;;2211410;64;20499;-42
2022/01/08 08:51:12;;;;;;;0.27;0.20;;;-4.00;85.00;;;;;;2211088;64;20185;-44
2022/01/08 08:53:39;;;;;;;0.93;0.40;;;-4.00;83.30;;;;;;2211404;64;20096;-44
2022/01/08 08:56:05;;;;;;;0.40;0.30;;;-3.80;84.00;;;;;;2211260;64;20171;-43
2022/01/08 08:58:32;;;;;;;0.67;0.40;;;-3.80;82.10;;;;;;2211438;64;20171;-44
2022/01/08 09:00:59;;;;;;;0.40;0.20;;;-3.80;81.60;;;;;;2211387;64;20103;-44
2022/01/08 09:03:25;;;;;;;0.60;0.30;;;-3.90;82.50;;;;;;2211218;64;20143;-42
2022/01/08 09:05:51;;;;;;;0.40;0.30;;;-4.00;82.20;;;;;;2208073;64;20081;-42
2022/01/08 09:08:18;;;;;;;4.93;0.83;;;-3.90;80.00;;;;;;2211523;64;20454;-45
2022/01/08 09:10:44;;;;;;;3.87;0.70;;;-4.00;78.70;;;;;;2211107;64;20112;-43
2022/01/08 09:13:11;;;;;;;0.40;0.23;;;-4.20;77.30;;;;;;2211330;64;20101;-43
2022/01/08 09:15:41;;;;;;;0.40;0.27;;;-4.20;77.80;;;;;;2211274;64;20073;-43
2022/01/08 09:18:08;;;;;;;0.70;0.27;;;-4.40;73.80;;;;;;2212273;64;20156;-43
2022/01/08 09:20:35;;;;;;;2.00;0.40;;;-4.40;72.00;;;;;;2216829;64;20111;-45
2022/01/08 09:23:01;;;;;;;1.10;0.30;;;-4.40;73.40;;;;;;2216174;64;20097;-44
2022/01/08 09:25:28;;;;;;;0.70;0.30;;;-4.10;76.10;;;;;;2216748;64;20453;-44
2022/01/08 09:27:54;;;;;;;1.17;0.60;;;-4.40;76.90;;;;;;2216942;64;20099;-44
2022/01/08 09:30:21;;;;;;;1.20;0.70;;;-4.60;80.70;;;;;;2216578;64;20103;-44
2022/01/08 09:32:47;;;;;;;4.10;0.50;;;-4.30;83.90;;;;;;2216924;64;20234;-43
2022/01/08 09:35:14;;;;;;;0.40;0.40;;;-3.90;87.00;;;;;;2216021;64;20092;-43
2022/01/08 09:37:41;;;;;;;0.83;0.37;;;-4.10;88.30;;;;;;2216886;64;20093;-42
2022/01/08 09:40:13;;;;;;;3.13;0.50;;;-4.40;90.20;;;;;;2216529;64;20088;-44
2022/01/08 09:42:43;;;;;;;9.50;0.60;;;-4.50;90.90;;;;;;2216165;64;20085;-46
2022/01/08 09:45:10;;;;;;;1.87;0.50;;;-4.50;90.00;;;;;;2216712;64;20104;-45
2022/01/08 09:47:37;;;;;;;0.50;0.40;;;-4.60;90.30;;;;;;2220204;64;20107;-43
2022/01/08 09:50:04;;;;;;;3.67;0.40;;;-4.70;90.20;;;;;;2220543;64;20107;-47
2022/01/08 09:52:32;;;;;;;1.33;0.80;;;-4.80;90.70;;;;;;2219488;64;20644;-45
2022/01/08 09:54:59;;;;;;;2.03;0.60;;;-4.70;90.80;;;;;;2220771;64;20164;-44
2022/01/08 09:57:26;;;;;;;1.30;0.47;;;-4.70;90.90;;;;;;2224506;64;20108;-43
2022/01/08 09:59:55;;;;;;;1.50;0.60;;;-4.70;90.60;;;;;;2224714;64;20092;-45
2022/01/08 10:02:22;;;;;;;1.17;0.50;;;-4.80;91.40;;;;;;2224384;64;20166;-42
2022/01/08 10:04:49;;;;;;;1.07;0.40;;;-4.80;90.50;;;;;;2224364;64;20474;-45
2022/01/08 10:07:23;;;;;;;4.73;0.50;;;-4.70;90.70;;;;;;2220414;64;20107;-43
2022/01/08 10:10:13;;;;;;;1.58;0.60;;;-4.80;90.90;;;;;;2224483;64;20176;-44
2022/01/08 10:12:58;;;;;;;0.97;0.50;;;-4.60;90.40;;;;;;2224366;64;20140;-43
2022/01/08 10:18:34;;;;;;;0.80;0.40;;;-4.70;89.40;;;;;;2218663;64;20003;-44
2022/01/08 10:21:19;;;;;;;0.57;0.40;;;-4.70;88.90;;;;;;2215885;64;20096;-45
2022/01/08 10:23:53;;;;;;;1.10;0.40;;;-4.90;87.40;;;;;;2218771;64;20186;-44
2022/01/08 10:26:21;;;;;;;1.33;0.35;;;-4.70;87.60;;;;;;2216080;64;20187;-44
2022/01/08 10:28:52;;;;;;;0.77;0.50;;;-4.90;87.00;;;;;;2207035;64;20105;-43
2022/01/08 10:31:26;;;;;;;3.33;0.70;;;-4.80;87.20;;;;;;2207073;64;20101;-44
2022/01/08 10:33:55;;;;;;;1.03;0.50;;;-4.50;84.20;;;;;;2204521;64;20116;-45
2022/01/08 10:36:30;;;;;;;1.33;0.70;;;-4.90;83.70;;;;;;2207908;64;20082;-43
2022/01/08 10:39:00;;;;;;;1.60;0.57;;;-4.90;84.00;;;;;;2208043;64;20521;-43
2022/01/08 10:41:27;;;;;;;1.87;0.77;;;-4.90;83.70;;;;;;2207859;64;20105;-44
2022/01/08 10:44:24;;;;;;;0.97;0.40;;;-5.10;81.80;;;;;;2204773;64;20635;-45
2022/01/08 10:46:58;;;;;;;0.90;0.50;;;-5.10;81.50;;;;;;2209769;64;20265;-42
2022/01/08 10:49:30;;;;;;;2.00;0.60;;;-5.20;82.20;;;;;;2211710;64;20093;-44
2022/01/08 10:51:57;;;;;;;1.30;0.30;;;-5.20;83.00;;;;;;2208492;64;20100;-43
2022/01/08 10:54:35;;;;;;;1.20;0.40;;;-5.10;80.50;;;;;;2211656;64;20553;-43
2022/01/08 10:57:03;;;;;;;0.50;0.27;;;-5.10;78.10;;;;;;2211524;64;20086;-42
2022/01/08 10:59:30;;;;;;;1.00;0.40;;;-5.10;77.90;;;;;;2208372;64;20098;-42
2022/01/08 11:01:59;;;;;;;0.97;0.70;;;-5.00;77.70;;;;;;2211546;64;20183;-42
2022/01/08 11:04:37;;;;;;;0.70;0.30;;;-4.90;77.10;;;;;;2211533;64;20492;-44
2022/01/08 11:07:07;;;;;;;0.57;0.30;;;-5.10;76.40;;;;;;2218721;64;20564;-44
2022/01/08 11:09:36;;;;;;;1.00;0.40;;;-5.20;76.90;;;;;;2220985;64;20104;-43
2022/01/08 11:12:03;;;;;;;1.80;0.50;;;-5.20;74.80;;;;;;2208052;64;20214;-43
2022/01/08 11:14:59;;;;;;;2.83;0.63;;;-5.30;75.60;;;;;;2211473;64;20117;-41
2022/01/08 11:17:37;;;;;;;4.37;0.50;;;-5.40;78.00;;;;;;2211442;64;20168;-43
2022/01/08 11:20:10;;;;;;;0.90;0.40;;;-5.40;76.10;;;;;;2211489;64;20094;-42
2022/01/08 11:22:39;;;;;;;0.50;0.30;;;-5.40;74.40;;;;;;2211431;64;20173;-43
2022/01/08 11:25:10;;;;;;;1.23;0.33;;;-5.50;75.90;;;;;;2208446;64;20191;-42
2022/01/08 11:27:58;;;;;;;0.50;0.10;;;-5.50;77.10;;;;;;2211361;64;20616;-44
2022/01/08 11:30:28;;;;;;;0.20;0.10;;;-5.60;75.50;;;;;;2211355;64;20112;-42
2022/01/08 11:32:57;;;;;;;2.73;0.20;;;-5.60;75.20;;;;;;2211577;64;20105;-43
2022/01/08 11:35:25;;;;;;;5.93;0.60;;;-5.60;75.70;;;;;;2208319;64;20228;-43
2022/01/08 11:37:54;;;;;;;0.77;0.40;;;-5.60;74.40;;;;;;2211707;64;20085;-45
2022/01/08 11:40:22;;;;;;;1.30;0.20;;;-5.70;77.70;;;;;;2208291;64;20105;-43
2022/01/08 11:42:49;;;;;;;1.47;0.40;;;-5.70;78.50;;;;;;2216298;64;20114;-43
2022/01/08 11:45:21;;;;;;;1.00;0.40;;;-5.90;77.40;;;;;;2224432;64;20547;-44
2022/01/08 11:47:50;;;;;;;2.77;0.57;;;-6.00;78.80;;;;;;2220935;64;20568;-44
2022/01/08 11:50:27;;;;;;;1.93;0.63;;;-6.10;78.10;;;;;;2224580;64;20108;-44
2022/01/08 11:53:25;;;;;;;0.83;0.37;;;-6.20;79.10;;;;;;2224869;64;20095;-43
2022/01/08 11:55:58;;;;;;;2.43;0.80;;;-6.20;79.50;;;;;;2224608;64;20096;-44
2022/01/08 11:58:33;;;;;;;1.53;0.70;;;-6.20;80.00;;;;;;2224552;64;20084;-44
2022/01/08 12:01:03;;;;;;;0.90;0.40;;;-6.10;78.40;;;;;;2224838;64;20096;-44
2022/01/08 12:03:39;;;;;;;1.30;0.53;;;-6.20;78.80;;;;;;2220939;64;20104;-44
2022/01/08 12:06:32;;;;;;;1.70;0.90;;;-6.20;79.30;;;;;;2220908;64;20244;-45
2022/01/08 12:09:23;;;;;;;1.27;0.50;;;-6.20;79.60;;;;;;2224440;64;20249;-43
2022/01/08 12:12:00;;;;;;;1.07;0.53;;;-6.40;80.60;;;;;;2224734;64;20155;-45
2022/01/08 12:14:28;;;;;;;3.13;0.50;;;-6.30;81.20;;;;;;2211139;64;20284;-46
2022/01/08 12:16:59;;;;;;;2.53;0.50;;;-6.40;82.60;;;;;;2211368;64;20093;-45
2022/01/08 12:19:30;;;;;;;3.27;0.63;;;-6.50;82.40;;;;;;2208165;64;20097;-46
2022/01/08 12:21:57;;;;;;;2.83;0.60;;;-6.50;82.30;;;;;;2211577;64;20112;-45
2022/01/08 12:24:26;;;;;;;0.80;0.50;;;-6.60;84.00;;;;;;2211354;64;20082;-46
2022/01/08 12:26:54;;;;;;;4.20;0.83;;;-6.60;82.30;;;;;;2211391;64;20742;-45
2022/01/08 12:29:42;;;;;;;1.73;0.70;;;-6.70;83.70;;;;;;2211320;64;20086;-45
2022/01/08 12:32:36;;;;;;;0.87;0.40;;;-6.80;85.00;;;;;;2211516;64;20090;-45
2022/01/08 12:38:06;;;;;;;3.37;1.23;;;-6.90;85.20;;;;;;2211411;64;20090;-44
2022/01/08 12:40:42;;;;;;;3.70;0.93;;;-6.90;84.80;;;;;;2208036;64;20093;-46
2022/01/08 12:43:23;;;;;;;3.83;0.80;;;-7.00;84.30;;;;;;2211508;64;20086;-45
2022/01/08 12:45:56;;;;;;;1.47;0.90;;;-7.10;85.10;;;;;;2211158;64;20082;-45
2022/01/08 12:48:23;;;;;;;1.27;0.50;;;-7.20;86.80;;;;;;2208044;64;20098;-44
2022/01/08 12:50:53;;;;;;;2.27;0.60;;;-7.30;85.70;;;;;;2207683;64;20497;-44
2022/01/08 12:53:27;;;;;;;2.67;0.77;;;-7.30;86.30;;;;;;2220789;64;20076;-44
2022/01/08 12:55:54;;;;;;;2.20;0.70;;;-7.30;85.90;;;;;;2224511;64;20188;-45
2022/01/08 12:58:27;;;;;;;1.00;0.70;;;-7.40;86.00;;;;;;2224545;64;20180;-46
2022/01/08 13:00:57;;;;;;;2.87;0.80;;;-7.40;86.70;;;;;;2224370;64;20108;-45
2022/01/08 13:03:29;;;;;;;4.63;1.60;;;-7.50;86.80;;;;;;2224546;64;20080;-46
2022/01/08 13:05:57;;;;;;;2.03;0.80;;;-7.60;88.10;;;;;;2224576;64;20729;-44
2022/01/08 13:08:28;;;;;;;0.27;0.27;;;-7.60;87.40;;;;;;2220778;64;20555;-45
2022/01/08 13:11:00;;;;;;;1.60;0.70;;;-7.60;87.00;;;;;;2220573;64;20103;-44
2022/01/08 13:13:27;;;;;;;3.80;0.90;;;-7.70;88.20;;;;;;2220849;64;20459;-45
2022/01/08 13:15:53;;;;;;;2.67;0.80;;;-7.70;88.20;;;;;;2224502;64;20134;-46
2022/01/08 13:18:24;;;;;;;3.50;0.70;;;-7.80;88.00;;;;;;2220779;64;20094;-44
2022/01/08 13:21:04;;;;;;;3.03;0.60;;;-7.80;88.00;;;;;;2224386;64;20496;-45
2022/01/08 13:23:31;;;;;;;2.00;0.67;;;-7.90;88.50;;;;;;2224617;64;20088;-46